CheckWX is a tool to help pilots better visualize weather data.  It is not intended as a substitute for an official pre-flight weather briefing.

15:12:45 UTC

EGPH METAR
Edinburgh Airport
Edinburgh, United Kingdom
Current

23 mins ago

EGPH 161450Z 23007KT 9999 SCT025 22/15 Q1015
Observed
Jul-16 @ 14:50 UTC
Wind
  • 230° at 7 KTS
Visibility
10,000+ meters
Flight Rules
VFR
Cloud Levels
  • Scattered at 2,500' AGL
Temperature
22°C / 72°F
Dewpoint
15°C / 59°F
Humidity
65%
Altimeter
29.97" Hg
Pressure
1014.92 hPa
Previous

53 mins ago

EGPH 161420Z 24010KT 9999 SCT034 21/15 Q1016
Observed
Jul-16 @ 14:20 UTC
Wind
  • 240° at 10 KTS
Visibility
10,000+ meters
Flight Rules
VFR
Cloud Levels
  • Scattered at 3,400' AGL
Temperature
21°C / 70°F
Dewpoint
15°C / 59°F
Humidity
69%
Altimeter
30" Hg
Pressure
1015.92 hPa
Previous

1 hour ago

EGPH 161350Z 27006KT 230V300 9999 SCT030 22/15 Q1016
Observed
Jul-16 @ 13:50 UTC
Wind
  • 270° at 6 KTS
Visibility
10,000+ meters
Flight Rules
VFR
Cloud Levels
  • Scattered at 3,000' AGL
Temperature
22°C / 72°F
Dewpoint
15°C / 59°F
Humidity
65%
Altimeter
30" Hg
Pressure
1015.92 hPa